createdAt,value
2022-12-29T00:01:30.000Z,3.4
2022-12-29T00:05:03.000Z,3.6
2022-12-29T00:08:36.000Z,3.7
2022-12-29T00:12:08.000Z,3.7
2022-12-29T00:15:41.000Z,3.7
2022-12-29T00:18:32.000Z,3.6
2022-12-29T00:22:05.000Z,3.9
2022-12-29T00:25:39.000Z,3.3
2022-12-29T00:29:11.000Z,3.5
2022-12-29T00:32:44.000Z,3.7
2022-12-29T00:36:16.000Z,3.7
2022-12-29T00:39:49.000Z,3.4
2022-12-29T00:43:22.000Z,3.4
2022-12-29T00:46:54.000Z,3.4
2022-12-29T00:50:27.000Z,3.4
2022-12-29T00:54:00.000Z,3.2
2022-12-29T00:56:51.000Z,3.9
2022-12-29T01:00:24.000Z,3.7
2022-12-29T01:03:56.000Z,3.1
2022-12-29T01:07:30.000Z,3.6
2022-12-29T01:11:02.000Z,3.7
2022-12-29T01:14:35.000Z,4
2022-12-29T01:18:08.000Z,3.7
2022-12-29T01:21:40.000Z,3.7
2022-12-29T01:25:13.000Z,3.8
2022-12-29T01:28:46.000Z,4
2022-12-29T01:32:18.000Z,3.9
2022-12-29T01:35:10.000Z,3.8
2022-12-29T01:38:43.000Z,3.7
2022-12-29T01:42:16.000Z,3.8
2022-12-29T01:45:49.000Z,4.1
2022-12-29T01:49:22.000Z,4
2022-12-29T01:52:54.000Z,3.8
2022-12-29T01:56:27.000Z,3.7
2022-12-29T02:00:00.000Z,4
2022-12-29T02:03:32.000Z,3.8
2022-12-29T02:07:06.000Z,4
2022-12-29T02:10:38.000Z,3.8
2022-12-29T02:13:29.000Z,3.9
2022-12-29T02:17:02.000Z,4.1
2022-12-29T02:20:35.000Z,4.4
2022-12-29T02:24:07.000Z,3.8
2022-12-29T02:27:40.000Z,3.8
2022-12-29T02:31:12.000Z,3.7
2022-12-29T02:34:46.000Z,3.8
2022-12-29T02:38:18.000Z,3.7
2022-12-29T02:41:51.000Z,3.7
2022-12-29T02:45:24.000Z,3.1
2022-12-29T02:48:57.000Z,3.2
2022-12-29T02:51:48.000Z,3.4
2022-12-29T02:55:20.000Z,3.3
2022-12-29T02:58:53.000Z,3.1
2022-12-29T03:02:25.000Z,3.5
2022-12-29T03:05:59.000Z,3.2
2022-12-29T03:09:32.000Z,3
2022-12-29T03:13:04.000Z,3.1
2022-12-29T03:16:37.000Z,2.9
2022-12-29T03:20:09.000Z,3.3
2022-12-29T03:23:43.000Z,3
2022-12-29T03:27:16.000Z,2.9
2022-12-29T03:30:07.000Z,3
2022-12-29T03:33:40.000Z,2.7
2022-12-29T03:37:12.000Z,2.5
2022-12-29T03:40:45.000Z,2.5
2022-12-29T03:44:18.000Z,2.3
2022-12-29T03:47:50.000Z,2.7
2022-12-29T03:51:23.000Z,2.4
2022-12-29T03:54:56.000Z,2.4
2022-12-29T03:58:28.000Z,2.2
2022-12-29T04:02:01.000Z,2.1
2022-12-29T04:05:34.000Z,2
2022-12-29T04:08:25.000Z,2.2
2022-12-29T04:11:58.000Z,2.3
2022-12-29T04:15:31.000Z,2.2
2022-12-29T04:19:04.000Z,2
2022-12-29T04:22:36.000Z,2
2022-12-29T04:26:09.000Z,1.9
2022-12-29T04:29:41.000Z,1.8
2022-12-29T04:33:14.000Z,2.2
2022-12-29T04:36:47.000Z,2.2
2022-12-29T04:40:20.000Z,2.1
2022-12-29T04:43:52.000Z,1.9
2022-12-29T04:46:43.000Z,2
2022-12-29T04:50:17.000Z,1.9
2022-12-29T04:53:49.000Z,1.7
2022-12-29T04:57:22.000Z,2.3
2022-12-29T05:00:54.000Z,2.3
2022-12-29T05:04:28.000Z,1.8
2022-12-29T05:08:00.000Z,2
2022-12-29T05:11:33.000Z,2.2
2022-12-29T05:15:06.000Z,2
2022-12-29T05:18:40.000Z,2.1
2022-12-29T05:22:13.000Z,1.9
2022-12-29T05:25:04.000Z,2.3
2022-12-29T05:28:37.000Z,2.1
2022-12-29T05:32:09.000Z,2.2
2022-12-29T05:35:44.000Z,1.8
2022-12-29T05:39:17.000Z,2.1
2022-12-29T05:42:49.000Z,2.3
2022-12-29T05:46:22.000Z,2.3
2022-12-29T05:49:55.000Z,1.8
2022-12-29T05:53:28.000Z,2.9
2022-12-29T05:57:00.000Z,2
2022-12-29T06:00:33.000Z,2.2
2022-12-29T06:03:24.000Z,2.1
2022-12-29T06:06:57.000Z,2.2
2022-12-29T06:10:30.000Z,2.4
2022-12-29T06:14:02.000Z,1.9
2022-12-29T06:17:35.000Z,2.3
2022-12-29T06:21:08.000Z,2
2022-12-29T06:24:40.000Z,1.9
2022-12-29T06:28:13.000Z,2.1
2022-12-29T06:31:46.000Z,1.9
2022-12-29T06:35:18.000Z,1.8
2022-12-29T06:38:51.000Z,1.8
2022-12-29T06:41:42.000Z,1.8
2022-12-29T06:45:15.000Z,2
2022-12-29T06:48:47.000Z,2.1
2022-12-29T06:52:20.000Z,1.9
2022-12-29T06:55:53.000Z,1.8
2022-12-29T06:59:25.000Z,1.9
2022-12-29T07:02:59.000Z,1.9
2022-12-29T07:06:32.000Z,2.3
2022-12-29T07:10:04.000Z,2.2
2022-12-29T07:13:37.000Z,2.2
2022-12-29T07:17:10.000Z,2.1
2022-12-29T07:20:01.000Z,1.8
2022-12-29T07:23:34.000Z,2.1
2022-12-29T07:27:07.000Z,2.2
2022-12-29T07:30:39.000Z,1.8
2022-12-29T07:34:12.000Z,1.9
2022-12-29T07:37:45.000Z,1.8
2022-12-29T07:41:17.000Z,2.1
2022-12-29T07:44:50.000Z,2
2022-12-29T07:48:55.000Z,2.3
2022-12-29T07:52:28.000Z,1.8
2022-12-29T07:56:00.000Z,1.9
2022-12-29T07:58:51.000Z,1.9
2022-12-29T08:02:24.000Z,2.3
2022-12-29T08:05:57.000Z,2.9
2022-12-29T08:09:29.000Z,2.6
2022-12-29T08:13:02.000Z,4.5
2022-12-29T08:16:35.000Z,3.4
2022-12-29T08:20:07.000Z,3.4
2022-12-29T08:23:40.000Z,3.1
2022-12-29T08:27:12.000Z,2.9
2022-12-29T08:30:46.000Z,2.8
2022-12-29T08:34:19.000Z,3.3
2022-12-29T08:37:10.000Z,3.5
2022-12-29T08:40:43.000Z,3.6
2022-12-29T08:44:16.000Z,4.3
2022-12-29T08:47:48.000Z,3.9
2022-12-29T08:51:21.000Z,2.8
2022-12-29T08:54:53.000Z,2.6
2022-12-29T08:58:26.000Z,3.1
2022-12-29T09:01:59.000Z,3.6
2022-12-29T09:06:02.000Z,3.2
2022-12-29T09:09:34.000Z,3.1
2022-12-29T09:13:07.000Z,2.6
2022-12-29T09:15:58.000Z,2.5
2022-12-29T09:19:31.000Z,2.8
2022-12-29T09:23:04.000Z,2.9
2022-12-29T09:26:37.000Z,3.4
2022-12-29T09:30:12.000Z,3.4
2022-12-29T09:33:45.000Z,3.1
2022-12-29T09:37:17.000Z,2.7
2022-12-29T09:40:50.000Z,3.2
2022-12-29T09:44:23.000Z,3.3
2022-12-29T09:47:55.000Z,3.4
2022-12-29T09:51:34.000Z,3.3
2022-12-29T09:54:25.000Z,3.3
2022-12-29T09:57:58.000Z,3.4
2022-12-29T10:01:30.000Z,3.6
2022-12-29T10:05:04.000Z,3.1
2022-12-29T10:09:09.000Z,3.1
2022-12-29T10:12:42.000Z,3.4
2022-12-29T10:16:15.000Z,3
2022-12-29T10:19:48.000Z,3.1
2022-12-29T10:23:20.000Z,2.8
2022-12-29T10:26:53.000Z,2.9
2022-12-29T10:30:26.000Z,3.1
2022-12-29T10:33:17.000Z,3.6
2022-12-29T10:36:49.000Z,3.4
2022-12-29T10:40:22.000Z,3.5
2022-12-29T10:43:54.000Z,3.6
2022-12-29T10:47:27.000Z,3.2
2022-12-29T10:51:00.000Z,2.7
2022-12-29T10:54:32.000Z,2.8
2022-12-29T10:58:05.000Z,2.6
2022-12-29T11:01:38.000Z,2.3
2022-12-29T11:05:11.000Z,2.4
2022-12-29T11:08:44.000Z,2.5
2022-12-29T11:11:35.000Z,2.3
2022-12-29T11:15:08.000Z,3.4
2022-12-29T11:18:41.000Z,3.6
2022-12-29T11:22:13.000Z,2.8
2022-12-29T11:25:46.000Z,2.3
2022-12-29T11:29:19.000Z,2.5
2022-12-29T11:32:51.000Z,2.4
2022-12-29T11:36:24.000Z,2.3
2022-12-29T11:39:57.000Z,2.4
2022-12-29T11:43:29.000Z,2.2
2022-12-29T11:47:09.000Z,2
2022-12-29T11:50:00.000Z,2.2
2022-12-29T11:53:33.000Z,2.1
2022-12-29T11:57:05.000Z,2
2022-12-29T12:00:38.000Z,1.5
2022-12-29T12:04:11.000Z,1.7
2022-12-29T12:07:44.000Z,1.5
2022-12-29T12:11:17.000Z,1.4
2022-12-29T12:14:49.000Z,1.2
2022-12-29T12:18:22.000Z,1.3
2022-12-29T12:21:55.000Z,1
2022-12-29T12:25:28.000Z,1.1
2022-12-29T12:28:19.000Z,0.9
2022-12-29T12:31:56.000Z,0.9
2022-12-29T12:35:29.000Z,1.1
2022-12-29T12:39:02.000Z,1
2022-12-29T12:42:34.000Z,1
2022-12-29T12:46:07.000Z,0.9
2022-12-29T12:49:40.000Z,0.7
2022-12-29T12:53:12.000Z,1.3
2022-12-29T12:56:45.000Z,1
2022-12-29T13:00:18.000Z,1
2022-12-29T13:03:51.000Z,0.9
2022-12-29T13:06:42.000Z,1
2022-12-29T13:10:15.000Z,1.2
2022-12-29T13:13:48.000Z,3.1
2022-12-29T13:17:20.000Z,1.2
2022-12-29T13:20:53.000Z,0.6
2022-12-29T13:24:26.000Z,0.9
2022-12-29T13:27:58.000Z,1
2022-12-29T13:31:31.000Z,1
2022-12-29T13:35:04.000Z,3.1
2022-12-29T13:38:36.000Z,1.7
2022-12-29T13:42:09.000Z,1.6
2022-12-29T13:45:00.000Z,0.7
2022-12-29T13:48:33.000Z,1.5
2022-12-29T13:52:06.000Z,1
2022-12-29T13:55:39.000Z,1
2022-12-29T13:59:12.000Z,0.9
2022-12-29T14:02:44.000Z,1.1
2022-12-29T14:06:17.000Z,6.4
2022-12-29T14:09:50.000Z,1.4
2022-12-29T14:13:22.000Z,1
2022-12-29T14:16:55.000Z,1.2
2022-12-29T14:20:27.000Z,1.3
2022-12-29T14:23:19.000Z,0.9
2022-12-29T14:26:51.000Z,1.2
2022-12-29T14:30:24.000Z,1.1
2022-12-29T14:33:57.000Z,0.8
2022-12-29T14:37:29.000Z,1.2
2022-12-29T14:41:02.000Z,1.4
2022-12-29T14:44:40.000Z,1.5
2022-12-29T14:48:12.000Z,1.5
2022-12-29T14:51:45.000Z,1.5
2022-12-29T14:55:18.000Z,1.4
2022-12-29T14:58:50.000Z,1.2
2022-12-29T15:01:42.000Z,1
2022-12-29T15:05:14.000Z,1.4
2022-12-29T15:08:47.000Z,1.3
2022-12-29T15:12:20.000Z,1.4
2022-12-29T15:15:53.000Z,1.4
2022-12-29T15:19:26.000Z,1.5
2022-12-29T15:22:58.000Z,1.4
2022-12-29T15:26:36.000Z,1.6
2022-12-29T15:30:09.000Z,1.7
2022-12-29T15:33:43.000Z,1.1
2022-12-29T15:37:16.000Z,1.4
2022-12-29T15:40:07.000Z,1.3
2022-12-29T15:43:40.000Z,2.8
2022-12-29T15:47:12.000Z,3.1
2022-12-29T15:50:45.000Z,3.1
2022-12-29T15:54:18.000Z,2
2022-12-29T15:57:50.000Z,2.4
2022-12-29T16:01:23.000Z,2
2022-12-29T16:04:56.000Z,2.4
2022-12-29T16:08:44.000Z,1.9
2022-12-29T16:12:16.000Z,1.6
2022-12-29T16:15:49.000Z,1.5
2022-12-29T16:18:40.000Z,2
2022-12-29T16:22:22.000Z,3
2022-12-29T16:25:54.000Z,1.6
2022-12-29T16:29:27.000Z,1.5
2022-12-29T16:33:00.000Z,1.5
2022-12-29T16:36:33.000Z,1.4
2022-12-29T16:40:05.000Z,1.8
2022-12-29T16:43:38.000Z,1.9
2022-12-29T16:47:11.000Z,2.6
2022-12-29T16:50:43.000Z,4.9
2022-12-29T16:54:16.000Z,3.3
2022-12-29T16:57:07.000Z,4
2022-12-29T17:00:46.000Z,3.7
2022-12-29T17:04:19.000Z,7.7
2022-12-29T17:07:56.000Z,6.2
2022-12-29T17:11:29.000Z,2
2022-12-29T17:15:02.000Z,5.6
2022-12-29T17:18:34.000Z,1.9
2022-12-29T17:22:07.000Z,2.9
2022-12-29T17:25:40.000Z,2.3
2022-12-29T17:29:12.000Z,2.1
2022-12-29T17:32:45.000Z,2.3
2022-12-29T17:35:36.000Z,1.7
2022-12-29T17:39:09.000Z,2.2
2022-12-29T17:42:41.000Z,1.9
2022-12-29T17:46:14.000Z,1.9
2022-12-29T17:49:47.000Z,2.1
2022-12-29T17:53:19.000Z,1.6
2022-12-29T17:56:52.000Z,1.7
2022-12-29T18:00:25.000Z,1.2
2022-12-29T18:03:58.000Z,1.4
2022-12-29T18:07:30.000Z,1.5
2022-12-29T18:11:03.000Z,1.6
2022-12-29T18:13:54.000Z,2
2022-12-29T18:17:27.000Z,2.2
2022-12-29T18:21:00.000Z,2.9
2022-12-29T18:24:32.000Z,2.7
2022-12-29T18:28:05.000Z,5.3
2022-12-29T18:31:38.000Z,3.9
2022-12-29T18:35:19.000Z,2.9
2022-12-29T18:38:52.000Z,4.2
2022-12-29T18:42:25.000Z,4.3
2022-12-29T18:45:57.000Z,2.9
2022-12-29T18:49:30.000Z,3.2
2022-12-29T18:52:21.000Z,9.6
2022-12-29T18:55:54.000Z,6
2022-12-29T18:59:26.000Z,2.8
2022-12-29T19:02:59.000Z,3.5
2022-12-29T19:06:32.000Z,3.8
2022-12-29T19:10:05.000Z,2.8
2022-12-29T19:13:37.000Z,4
2022-12-29T19:17:10.000Z,3.6
2022-12-29T19:20:49.000Z,3.8
2022-12-29T19:24:22.000Z,2.5
2022-12-29T19:27:54.000Z,2.7
2022-12-29T19:30:46.000Z,3.7
2022-12-29T19:34:22.000Z,4.1
2022-12-29T19:37:54.000Z,4.1
2022-12-29T19:41:27.000Z,2.8
2022-12-29T19:45:00.000Z,3.5
2022-12-29T19:48:32.000Z,2.5
2022-12-29T19:52:05.000Z,2.6
2022-12-29T19:55:38.000Z,2.6
2022-12-29T19:59:10.000Z,5.3
2022-12-29T20:02:43.000Z,3.5
2022-12-29T20:06:16.000Z,2.3
2022-12-29T20:09:07.000Z,2.2
2022-12-29T20:12:39.000Z,2.8
2022-12-29T20:16:12.000Z,2
2022-12-29T20:20:12.000Z,2.2
2022-12-29T20:23:44.000Z,2.2
2022-12-29T20:27:44.000Z,2.5
2022-12-29T20:31:16.000Z,2.1
2022-12-29T20:34:49.000Z,2.1
2022-12-29T20:38:22.000Z,2
2022-12-29T20:41:55.000Z,2.3
2022-12-29T20:45:27.000Z,3.8
2022-12-29T20:48:18.000Z,2.3
2022-12-29T20:51:51.000Z,1.9
2022-12-29T20:55:32.000Z,2.8
2022-12-29T20:59:06.000Z,2.5
2022-12-29T21:02:53.000Z,2.2
2022-12-29T21:06:55.000Z,2.2
2022-12-29T21:10:28.000Z,2.1
2022-12-29T21:14:01.000Z,2.2
2022-12-29T21:17:33.000Z,2.3
2022-12-29T21:21:06.000Z,2.3
2022-12-29T21:24:38.000Z,2.4
2022-12-29T21:27:30.000Z,2.5
2022-12-29T21:31:02.000Z,4.4
2022-12-29T21:34:35.000Z,3.5
2022-12-29T21:38:08.000Z,2.5
2022-12-29T21:41:40.000Z,2.8
2022-12-29T21:45:13.000Z,1.9
2022-12-29T21:48:46.000Z,2.1
2022-12-29T21:52:19.000Z,2.1
2022-12-29T21:55:51.000Z,2.7
2022-12-29T21:59:24.000Z,2.3
2022-12-29T22:02:57.000Z,1.8
2022-12-29T22:05:48.000Z,2.1
2022-12-29T22:09:21.000Z,3.9
2022-12-29T22:12:53.000Z,2.5
2022-12-29T22:16:26.000Z,2
2022-12-29T22:19:58.000Z,1.8
2022-12-29T22:23:31.000Z,2.4
2022-12-29T22:27:04.000Z,2.4
2022-12-29T22:30:36.000Z,2.3
2022-12-29T22:34:09.000Z,2.4
2022-12-29T22:37:42.000Z,2.6
2022-12-29T22:41:14.000Z,2.3
2022-12-29T22:44:06.000Z,2.5
2022-12-29T22:47:38.000Z,2.1
2022-12-29T22:51:11.000Z,2.7
2022-12-29T22:54:44.000Z,2.5
2022-12-29T22:58:16.000Z,2.2
2022-12-29T23:01:49.000Z,2.9
2022-12-29T23:05:22.000Z,2.5
2022-12-29T23:08:55.000Z,2.6
2022-12-29T23:12:27.000Z,3.1
2022-12-29T23:16:00.000Z,2.7
2022-12-29T23:19:33.000Z,2.5
2022-12-29T23:22:24.000Z,2.7
2022-12-29T23:25:57.000Z,2.8
2022-12-29T23:29:29.000Z,2.3
2022-12-29T23:33:02.000Z,2.5
2022-12-29T23:36:35.000Z,2.5
2022-12-29T23:40:07.000Z,3.1
2022-12-29T23:43:40.000Z,2.5
2022-12-29T23:47:12.000Z,2.6
2022-12-29T23:50:45.000Z,1.9
2022-12-29T23:54:18.000Z,2.4
2022-12-29T23:57:51.000Z,2.2
